createdAt,value
2022-08-02T00:00:06.145Z,91.70
2022-08-02T00:01:06.264Z,91.66
2022-08-02T00:02:06.210Z,91.80
2022-08-02T00:03:06.136Z,91.50
2022-08-02T00:04:06.117Z,91.39
2022-08-02T00:05:06.103Z,91.39
2022-08-02T00:06:06.102Z,91.39
2022-08-02T00:07:06.090Z,91.39
2022-08-02T00:08:06.097Z,91.39
2022-08-02T00:09:06.196Z,91.50
2022-08-02T00:10:06.069Z,91.39
2022-08-02T00:11:06.053Z,91.74
2022-08-02T00:12:06.049Z,92.14
2022-08-02T00:13:06.048Z,91.90
2022-08-02T00:14:06.040Z,92.45
2022-08-02T00:15:06.020Z,92.55
2022-08-02T00:16:06.022Z,92.55
2022-08-02T00:17:07.580Z,92.35
2022-08-02T00:18:06.009Z,93.26
2022-08-02T00:19:05.981Z,93.10
2022-08-02T00:20:06.980Z,92.76
2022-08-02T00:21:05.974Z,92.60
2022-08-02T00:22:05.967Z,92.90
2022-08-02T00:23:05.963Z,92.90
2022-08-02T00:24:29.982Z,92.90
2022-08-02T00:25:06.940Z,92.90
2022-08-02T00:26:05.930Z,92.60
2022-08-02T00:27:09.652Z,92.80
2022-08-02T00:28:05.925Z,93.20
2022-08-02T00:29:05.915Z,93.00
2022-08-02T00:30:05.905Z,93.10
2022-08-02T00:31:05.895Z,93.20
2022-08-02T00:32:55.784Z,93.24
2022-08-02T00:34:26.472Z,93.15
2022-08-02T00:34:57.860Z,93.04
2022-08-02T00:35:56.862Z,93.35
2022-08-02T00:36:56.846Z,93.35
2022-08-02T00:37:56.845Z,93.35
2022-08-02T00:38:56.855Z,93.24
2022-08-02T00:39:56.823Z,93.85
2022-08-02T00:40:58.256Z,93.35
2022-08-02T00:41:57.803Z,93.44
2022-08-02T00:42:56.804Z,93.85
2022-08-02T00:43:56.789Z,93.65
2022-08-02T00:44:56.784Z,93.75
2022-08-02T00:46:02.692Z,93.85
2022-08-02T00:46:57.759Z,93.85
2022-08-02T00:47:57.758Z,93.55
2022-08-02T00:48:56.780Z,93.75
2022-08-02T00:49:56.732Z,93.55
2022-08-02T00:50:57.743Z,93.59
2022-08-02T00:51:56.731Z,93.49
2022-08-02T00:52:56.719Z,93.90
2022-08-02T00:53:56.706Z,94.00
2022-08-02T00:54:56.695Z,93.79
2022-08-02T00:55:56.688Z,93.55
2022-08-02T00:56:56.681Z,93.49
2022-08-02T00:57:56.678Z,93.29
2022-08-02T00:58:57.656Z,93.29
2022-08-02T00:59:56.658Z,93.79
2022-08-02T01:00:56.651Z,93.19
2022-08-02T01:01:58.293Z,93.29
2022-08-02T01:02:56.633Z,93.29
2022-08-02T01:03:56.634Z,93.33
2022-08-02T01:04:57.149Z,93.70
2022-08-02T01:06:10.966Z,94.00
2022-08-02T01:06:57.593Z,93.90
2022-08-02T01:07:57.593Z,93.70
2022-08-02T01:08:56.595Z,93.49
2022-08-02T01:09:56.586Z,93.59
2022-08-02T01:10:56.573Z,93.59
2022-08-02T01:11:56.578Z,93.19
2022-08-02T01:12:56.558Z,93.74
2022-08-02T01:13:56.559Z,93.79
2022-08-02T01:14:56.547Z,93.19
2022-08-02T01:15:56.530Z,93.70
2022-08-02T01:16:56.524Z,93.59
2022-08-02T01:17:56.509Z,93.59
2022-08-02T01:18:56.519Z,93.70
2022-08-02T01:19:56.502Z,93.79
2022-08-02T01:20:57.234Z,93.84
2022-08-02T01:21:56.483Z,94.14
2022-08-02T01:23:03.767Z,93.74
2022-08-02T01:23:58.473Z,93.84
2022-08-02T01:24:56.462Z,93.99
2022-08-02T01:25:56.454Z,94.14
2022-08-02T01:26:56.442Z,94.19
2022-08-02T01:27:56.450Z,94.24
2022-08-02T01:28:56.428Z,94.04
2022-08-02T01:29:56.428Z,93.74
2022-08-02T01:30:56.408Z,94.49
2022-08-02T01:31:56.404Z,94.19
2022-08-02T01:32:56.403Z,94.19
2022-08-02T01:33:56.399Z,95.20
2022-08-02T01:34:56.378Z,95.00
2022-08-02T01:35:57.244Z,94.90
2022-08-02T01:36:56.364Z,95.04
2022-08-02T01:37:56.360Z,94.84
2022-08-02T01:38:56.353Z,95.30
2022-08-02T01:39:56.348Z,95.14
2022-08-02T01:40:56.339Z,95.35
2022-08-02T01:41:58.798Z,94.74
2022-08-02T01:42:58.165Z,94.74
2022-08-02T01:43:56.330Z,94.84
2022-08-02T01:44:56.324Z,94.74
2022-08-02T01:45:56.294Z,94.94
2022-08-02T01:46:56.292Z,94.94
2022-08-02T01:47:56.280Z,95.25
2022-08-02T01:48:56.311Z,95.45
2022-08-02T01:49:56.259Z,95.14
2022-08-02T01:50:56.253Z,94.94
2022-08-02T01:51:56.257Z,95.39
2022-08-02T01:52:56.236Z,95.29
2022-08-02T01:53:56.232Z,95.50
2022-08-02T01:54:56.225Z,95.39
2022-08-02T01:55:57.555Z,95.70
2022-08-02T01:56:56.207Z,95.90
2022-08-02T01:57:56.197Z,95.70
2022-08-02T01:58:56.190Z,95.70
2022-08-02T01:59:56.178Z,95.70
2022-08-02T02:00:56.243Z,95.39
2022-08-02T02:01:56.161Z,95.19
2022-08-02T02:02:56.156Z,95.59
2022-08-02T02:03:56.154Z,95.39
2022-08-02T02:04:56.151Z,95.50
2022-08-02T02:05:56.130Z,95.70
2022-08-02T02:06:56.126Z,95.39
2022-08-02T02:07:56.126Z,95.35
2022-08-02T02:08:56.119Z,95.50
2022-08-02T02:09:56.101Z,95.39
2022-08-02T02:10:56.106Z,95.59
2022-08-02T02:12:06.508Z,94.74
2022-08-02T02:12:57.082Z,95.19
2022-08-02T02:13:56.067Z,95.59
2022-08-02T02:14:56.058Z,95.35
2022-08-02T02:15:56.063Z,95.50
2022-08-02T02:16:56.039Z,95.50
2022-08-02T02:18:13.253Z,95.29
2022-08-02T02:18:57.028Z,95.45
2022-08-02T02:19:56.020Z,94.84
2022-08-02T02:20:56.018Z,94.54
2022-08-02T02:21:56.004Z,94.78
2022-08-02T02:22:55.997Z,94.94
2022-08-02T02:23:56.986Z,94.98
2022-08-02T02:24:55.988Z,95.19
2022-08-02T02:25:56.075Z,95.25
2022-08-02T02:26:55.978Z,94.98
2022-08-02T02:27:55.956Z,95.19
2022-08-02T02:28:55.946Z,95.19
2022-08-02T02:29:55.943Z,94.78
2022-08-02T02:30:55.938Z,95.19
2022-08-02T02:31:55.925Z,95.64
2022-08-02T02:32:55.916Z,95.34
2022-08-02T02:33:55.904Z,95.34
2022-08-02T02:34:55.898Z,95.34
2022-08-02T02:35:55.890Z,95.23
2022-08-02T02:36:55.874Z,95.54
2022-08-02T02:37:55.870Z,95.64
2022-08-02T02:38:55.863Z,95.84
2022-08-02T02:39:55.856Z,95.64
2022-08-02T02:40:55.847Z,95.84
2022-08-02T02:41:55.830Z,95.94
2022-08-02T02:42:55.826Z,95.74
2022-08-02T02:43:55.824Z,95.64
2022-08-02T02:44:55.813Z,95.64
2022-08-02T02:45:55.799Z,95.74
2022-08-02T02:46:55.797Z,95.54
2022-08-02T02:47:57.753Z,95.74
2022-08-02T02:48:55.816Z,95.64
2022-08-02T02:49:55.771Z,95.54
2022-08-02T02:50:55.769Z,95.34
2022-08-02T02:51:55.752Z,95.38
2022-08-02T02:52:55.748Z,95.54
2022-08-02T02:54:29.902Z,95.48
2022-08-02T02:54:56.733Z,95.38
2022-08-02T02:56:02.073Z,95.38
2022-08-02T02:56:56.706Z,95.58
2022-08-02T02:57:55.707Z,95.58
2022-08-02T02:58:55.700Z,95.68
2022-08-02T02:59:55.694Z,95.48
2022-08-02T03:00:55.688Z,95.38
2022-08-02T03:01:58.046Z,95.79
2022-08-02T03:02:55.656Z,95.89
2022-08-02T03:03:55.647Z,95.68
2022-08-02T03:04:58.113Z,95.42
2022-08-02T03:05:55.630Z,95.94
2022-08-02T03:06:55.629Z,95.73
2022-08-02T03:07:55.622Z,95.94
2022-08-02T03:08:55.604Z,95.83
2022-08-02T03:09:55.614Z,95.94
2022-08-02T03:10:55.598Z,96.23
2022-08-02T03:11:55.587Z,96.14
2022-08-02T03:12:55.575Z,96.34
2022-08-02T03:13:55.568Z,96.34
2022-08-02T03:14:55.571Z,97.05
2022-08-02T03:15:55.547Z,97.05
2022-08-02T03:16:56.551Z,97.09
2022-08-02T03:17:55.540Z,96.75
2022-08-02T03:18:55.529Z,97.15
2022-08-02T03:19:55.521Z,97.15
2022-08-02T03:20:55.515Z,96.64
2022-08-02T03:21:57.518Z,96.64
2022-08-02T03:22:55.517Z,96.59
2022-08-02T03:23:55.488Z,96.64
2022-08-02T03:24:55.485Z,96.44
2022-08-02T03:25:55.475Z,96.54
2022-08-02T03:26:55.489Z,96.48
2022-08-02T03:27:55.469Z,96.69
2022-08-02T03:28:55.451Z,96.69
2022-08-02T03:29:55.440Z,97.09
2022-08-02T03:30:55.437Z,96.28
2022-08-02T03:31:55.428Z,96.79
2022-08-02T03:32:55.422Z,96.18
2022-08-02T03:33:55.409Z,96.63
2022-08-02T03:34:55.407Z,96.99
2022-08-02T03:35:55.393Z,97.09
2022-08-02T03:36:55.386Z,97.44
2022-08-02T03:37:55.382Z,96.99
2022-08-02T03:38:55.376Z,97.24
2022-08-02T03:39:55.363Z,97.14
2022-08-02T03:40:55.355Z,97.14
2022-08-02T03:41:55.346Z,96.89
2022-08-02T03:42:55.350Z,96.99
2022-08-02T03:43:55.326Z,97.09
2022-08-02T03:44:55.327Z,97.09
2022-08-02T03:45:56.202Z,96.69
2022-08-02T03:46:55.320Z,96.59
2022-08-02T03:47:58.771Z,97.24
2022-08-02T03:48:55.327Z,97.44
2022-08-02T03:49:55.279Z,97.14
2022-08-02T03:50:55.278Z,97.04
2022-08-02T03:51:55.270Z,97.44
2022-08-02T03:52:55.259Z,97.65
2022-08-02T03:53:55.251Z,97.55
2022-08-02T03:54:55.242Z,97.55
2022-08-02T03:55:56.041Z,97.44
2022-08-02T03:56:56.229Z,97.44
2022-08-02T03:57:55.227Z,97.30
2022-08-02T03:58:55.215Z,97.09
2022-08-02T03:59:55.199Z,97.44
2022-08-02T04:00:55.242Z,97.71
2022-08-02T04:01:55.189Z,98.11
2022-08-02T04:02:55.190Z,98.07
2022-08-02T04:03:55.171Z,97.66
2022-08-02T04:04:55.159Z,97.25
2022-08-02T04:06:03.973Z,97.25
2022-08-02T04:06:56.138Z,96.44
2022-08-02T04:08:34.975Z,95.83
2022-08-02T04:08:56.724Z,95.73
2022-08-02T04:09:55.123Z,95.63
2022-08-02T04:10:55.105Z,95.12
2022-08-02T04:11:55.105Z,94.82
2022-08-02T04:12:55.092Z,95.12
2022-08-02T04:13:56.961Z,95.12
2022-08-02T04:14:55.129Z,94.82
2022-08-02T04:15:55.076Z,94.41
2022-08-02T04:16:55.058Z,94.51
2022-08-02T04:17:55.061Z,94.10
2022-08-02T04:18:55.043Z,94.31
2022-08-02T04:19:55.049Z,93.86
2022-08-02T04:20:55.031Z,93.65
2022-08-02T04:21:55.024Z,93.86
2022-08-02T04:22:55.017Z,93.25
2022-08-02T04:23:55.005Z,93.45
2022-08-02T04:24:55.033Z,93.71
2022-08-02T04:25:55.004Z,92.70
2022-08-02T04:26:54.995Z,92.35
2022-08-02T04:28:16.015Z,91.74
2022-08-02T04:28:55.970Z,92.05
2022-08-02T04:29:54.964Z,91.44
2022-08-02T04:30:54.961Z,91.24
2022-08-02T04:31:54.948Z,91.13
2022-08-02T04:32:54.940Z,91.38
2022-08-02T04:33:54.945Z,90.93
2022-08-02T04:35:18.059Z,91.48
2022-08-02T04:35:59.717Z,91.28
2022-08-02T04:36:55.907Z,91.48
2022-08-02T04:38:05.829Z,91.08
2022-08-02T04:38:55.902Z,91.48
2022-08-02T04:39:54.885Z,91.28
2022-08-02T04:40:54.876Z,91.17
2022-08-02T04:41:57.715Z,91.17
2022-08-02T04:42:55.863Z,91.24
2022-08-02T04:43:54.855Z,91.38
2022-08-02T04:44:54.854Z,92.09
2022-08-02T04:45:54.840Z,92.19
2022-08-02T04:46:54.843Z,92.19
2022-08-02T04:48:04.522Z,91.99
2022-08-02T04:48:55.860Z,91.48
2022-08-02T04:49:54.808Z,90.93
2022-08-02T04:50:54.796Z,90.97
2022-08-02T04:51:54.792Z,91.03
2022-08-02T04:52:54.786Z,91.17
2022-08-02T04:53:54.775Z,91.17
2022-08-02T04:54:55.762Z,91.03
2022-08-02T04:55:54.761Z,91.28
2022-08-02T04:56:54.769Z,92.09
2022-08-02T04:57:54.747Z,92.05
2022-08-02T04:58:54.748Z,92.45
2022-08-02T04:59:54.800Z,93.37
2022-08-02T05:00:54.741Z,92.91
2022-08-02T05:01:54.710Z,93.02
2022-08-02T05:02:54.710Z,93.32
2022-08-02T05:03:54.695Z,93.42
2022-08-02T05:04:54.688Z,92.87
2022-08-02T05:05:54.675Z,91.90
2022-08-02T05:06:54.673Z,90.84
2022-08-02T05:07:54.671Z,90.79
2022-08-02T05:08:54.689Z,90.48
2022-08-02T05:09:54.664Z,90.69
2022-08-02T05:10:54.634Z,90.58
2022-08-02T05:11:55.241Z,90.44
2022-08-02T05:12:54.626Z,90.58
2022-08-02T05:13:58.052Z,90.48
2022-08-02T05:14:54.603Z,90.38
2022-08-02T05:15:54.593Z,90.69
2022-08-02T05:16:54.586Z,90.14
2022-08-02T05:17:54.582Z,89.94
2022-08-02T05:18:55.291Z,89.53
2022-08-02T05:19:54.561Z,89.02
2022-08-02T05:20:58.118Z,89.02
2022-08-02T05:21:55.605Z,88.82
2022-08-02T05:22:54.824Z,88.98
2022-08-02T05:23:54.533Z,88.57
2022-08-02T05:24:55.232Z,88.37
2022-08-02T05:25:54.519Z,88.02
2022-08-02T05:26:54.511Z,87.62
2022-08-02T05:29:00.495Z,86.87
2022-08-02T05:30:00.483Z,86.67
2022-08-02T05:31:00.481Z,86.93
2022-08-02T05:32:00.466Z,85.42
2022-08-02T05:33:00.461Z,85.02
2022-08-02T05:34:00.455Z,84.77
2022-08-02T05:35:00.444Z,84.67
2022-08-02T05:36:00.446Z,84.57
2022-08-02T05:37:00.429Z,84.23
2022-08-02T05:38:00.428Z,84.19
2022-08-02T05:39:05.040Z,83.44
2022-08-02T05:40:01.073Z,82.84
2022-08-02T05:41:00.394Z,82.65
2022-08-02T05:42:00.389Z,82.11
2022-08-02T05:43:00.444Z,81.67
2022-08-02T05:44:00.373Z,80.02
2022-08-02T05:45:01.445Z,79.35
2022-08-02T05:46:02.531Z,78.10
2022-08-02T05:47:01.459Z,76.35
2022-08-02T05:48:01.476Z,75.24
2022-08-02T05:49:01.477Z,74.24
2022-08-02T05:50:01.423Z,73.60
2022-08-02T05:51:01.408Z,74.01
2022-08-02T05:52:01.406Z,73.74
2022-08-02T05:53:01.390Z,73.94
2022-08-02T05:54:01.386Z,74.10
2022-08-02T05:55:01.380Z,74.24
2022-08-02T05:56:05.362Z,73.94
2022-08-02T05:57:02.371Z,74.64
2022-08-02T05:58:01.370Z,75.24
2022-08-02T05:59:01.364Z,75.58
2022-08-02T06:00:02.789Z,75.51
2022-08-02T06:01:01.343Z,75.71
2022-08-02T06:02:01.391Z,75.92
2022-08-02T06:03:01.329Z,76.42
2022-08-02T06:04:01.305Z,77.16
2022-08-02T06:05:01.315Z,76.21
2022-08-02T06:06:01.297Z,77.26
2022-08-02T06:07:02.258Z,76.96
2022-08-02T06:08:01.296Z,77.46
2022-08-02T06:09:01.267Z,77.46
2022-08-02T06:10:01.252Z,77.06
2022-08-02T06:11:01.251Z,77.29
2022-08-02T06:12:02.506Z,77.00
2022-08-02T06:13:01.259Z,76.96
2022-08-02T06:14:01.740Z,77.36
2022-08-02T06:15:01.210Z,77.06
2022-08-02T06:16:01.212Z,76.42
2022-08-02T06:17:01.192Z,76.28
2022-08-02T06:18:01.202Z,75.68
2022-08-02T06:19:01.192Z,75.51
2022-08-02T06:20:01.204Z,75.31
2022-08-02T06:21:03.806Z,73.83
2022-08-02T06:22:32.270Z,72.83
2022-08-02T06:23:02.183Z,72.00
2022-08-02T06:24:01.138Z,71.06
2022-08-02T06:25:01.127Z,70.49
2022-08-02T06:26:01.125Z,69.99
2022-08-02T06:27:01.687Z,69.23
2022-08-02T06:28:01.127Z,68.03
2022-08-02T06:29:01.128Z,67.60
2022-08-02T06:30:01.098Z,66.36
2022-08-02T06:31:01.675Z,66.83
2022-08-02T06:32:01.076Z,64.54
2022-08-02T06:33:03.084Z,64.90
2022-08-02T06:34:01.113Z,64.48
2022-08-02T06:35:01.063Z,64.25
2022-08-02T06:36:01.101Z,63.65
2022-08-02T06:37:01.023Z,63.12
2022-08-02T06:38:01.038Z,63.22
2022-08-02T06:39:01.016Z,63.29
2022-08-02T06:40:01.690Z,62.40
2022-08-02T06:41:00.991Z,61.57
2022-08-02T06:42:00.987Z,61.57
2022-08-02T06:43:00.983Z,61.47
2022-08-02T06:44:19.613Z,61.44
2022-08-02T06:45:02.948Z,60.12
2022-08-02T06:47:07.431Z,59.72
2022-08-02T06:47:11.891Z,60.22
2022-08-02T06:48:01.939Z,59.92
2022-08-02T06:49:01.086Z,60.22
2022-08-02T06:50:01.028Z,59.19
2022-08-02T06:51:00.976Z,59.17
2022-08-02T06:52:00.904Z,58.94
2022-08-02T06:53:00.929Z,58.44
2022-08-02T06:54:00.905Z,58.44
2022-08-02T06:55:00.939Z,58.34
2022-08-02T06:56:00.896Z,58.15
2022-08-02T06:57:00.872Z,58.02
2022-08-02T06:58:00.880Z,57.59
2022-08-02T06:59:05.562Z,57.10
2022-08-02T07:00:02.849Z,57.37
2022-08-02T07:01:00.846Z,56.68
2022-08-02T07:02:00.867Z,56.55
2022-08-02T07:03:00.832Z,55.93
2022-08-02T07:04:00.808Z,55.13
2022-08-02T07:05:00.816Z,55.51
2022-08-02T07:06:00.793Z,54.81
2022-08-02T07:07:00.779Z,54.91
2022-08-02T07:08:01.803Z,55.18
2022-08-02T07:09:20.152Z,54.79
2022-08-02T07:10:02.765Z,53.99
2022-08-02T07:11:00.759Z,54.59
2022-08-02T07:12:00.779Z,54.02
2022-08-02T07:13:00.739Z,54.49
2022-08-02T07:14:00.750Z,54.19
2022-08-02T07:15:00.738Z,54.29
2022-08-02T07:16:00.719Z,54.61
2022-08-02T07:17:00.721Z,55.56
2022-08-02T07:18:00.710Z,56.28
2022-08-02T07:19:00.700Z,56.68
2022-08-02T07:20:00.686Z,56.55
2022-08-02T07:21:00.681Z,55.04
2022-08-02T07:22:01.855Z,55.63
2022-08-02T07:23:00.696Z,54.91
2022-08-02T07:24:00.664Z,54.81
2022-08-02T07:25:00.656Z,54.71
2022-08-02T07:26:02.605Z,55.01
2022-08-02T07:27:11.091Z,54.98
2022-08-02T07:28:02.642Z,54.71
2022-08-02T07:29:00.625Z,54.88
2022-08-02T07:30:00.621Z,55.28
2022-08-02T07:31:00.617Z,54.49
2022-08-02T07:32:00.593Z,54.49
2022-08-02T07:33:00.595Z,53.89
2022-08-02T07:34:00.590Z,54.49
2022-08-02T07:35:06.684Z,53.89
2022-08-02T07:36:01.633Z,54.17
2022-08-02T07:37:00.590Z,53.99
2022-08-02T07:38:02.106Z,53.77
2022-08-02T07:39:00.539Z,54.36
2022-08-02T07:40:00.542Z,54.39
2022-08-02T07:41:00.532Z,54.79
2022-08-02T07:42:00.536Z,54.49
2022-08-02T07:43:03.806Z,54.59
2022-08-02T07:44:01.504Z,53.97
2022-08-02T07:45:00.497Z,54.27
2022-08-02T07:46:01.003Z,53.97
2022-08-02T07:47:00.488Z,53.87
2022-08-02T07:48:00.489Z,52.78
2022-08-02T07:49:00.556Z,52.56
2022-08-02T07:50:00.481Z,52.53
2022-08-02T07:51:01.203Z,52.24
2022-08-02T07:52:00.454Z,51.72
2022-08-02T07:53:00.451Z,52.11
2022-08-02T07:54:02.747Z,52.44
2022-08-02T07:56:06.720Z,51.82
2022-08-02T07:57:06.726Z,51.82
2022-08-02T07:58:06.714Z,50.93
2022-08-02T07:59:06.699Z,50.73
2022-08-02T08:00:07.782Z,50.31
2022-08-02T08:01:07.843Z,49.94
2022-08-02T08:02:09.167Z,49.62
2022-08-02T08:03:08.668Z,49.01
2022-08-02T08:04:07.785Z,49.20
2022-08-02T08:05:07.746Z,48.32
2022-08-02T08:06:07.744Z,48.02
2022-08-02T08:07:07.764Z,48.63
2022-08-02T08:08:07.726Z,49.35
2022-08-02T08:09:07.714Z,49.77
2022-08-02T08:10:07.720Z,49.37
2022-08-02T08:11:07.693Z,49.08
2022-08-02T08:12:07.692Z,47.89
2022-08-02T08:13:07.681Z,48.58
2022-08-02T08:14:07.667Z,47.50
2022-08-02T08:15:07.665Z,47.79
2022-08-02T08:16:07.694Z,48.19
2022-08-02T08:17:07.645Z,48.43
2022-08-02T08:18:07.681Z,49.94
2022-08-02T08:19:07.650Z,49.62
2022-08-02T08:20:07.642Z,49.72
2022-08-02T08:21:07.615Z,49.01
2022-08-02T08:22:08.682Z,48.78
2022-08-02T08:23:07.605Z,47.18
2022-08-02T08:24:07.607Z,46.69
2022-08-02T08:25:07.584Z,46.59
2022-08-02T08:26:07.573Z,46.59
2022-08-02T08:27:07.556Z,46.88
2022-08-02T08:28:08.576Z,46.47
2022-08-02T08:29:07.551Z,46.88
2022-08-02T08:30:07.548Z,47.16
2022-08-02T08:31:07.539Z,46.47
2022-08-02T08:32:07.529Z,46.44
2022-08-02T08:33:07.533Z,46.25
2022-08-02T08:34:07.510Z,46.04
2022-08-02T08:35:07.513Z,46.04
2022-08-02T08:36:08.090Z,46.44
2022-08-02T08:37:07.498Z,46.94
2022-08-02T08:38:08.065Z,46.64
2022-08-02T08:39:09.469Z,47.85
2022-08-02T08:40:07.463Z,47.75
2022-08-02T08:41:08.294Z,47.33
2022-08-02T08:42:07.479Z,47.72
2022-08-02T08:43:07.450Z,47.45
2022-08-02T08:44:07.429Z,47.99
2022-08-02T08:45:07.423Z,49.91
2022-08-02T08:46:07.440Z,49.49
2022-08-02T08:47:07.451Z,49.89
2022-08-02T08:48:07.404Z,48.19
2022-08-02T08:49:07.398Z,48.46
2022-08-02T08:50:08.289Z,48.16
2022-08-02T08:51:07.388Z,48.36
2022-08-02T08:52:07.366Z,47.75
2022-08-02T08:53:07.371Z,47.45
2022-08-02T08:54:07.375Z,47.43
2022-08-02T08:55:07.354Z,47.13
2022-08-02T08:56:07.379Z,46.03
2022-08-02T08:57:07.337Z,46.62
2022-08-02T08:58:07.321Z,46.54
2022-08-02T08:59:07.327Z,45.53
2022-08-02T09:00:07.336Z,45.85
2022-08-02T09:01:07.404Z,46.74
2022-08-02T09:02:16.557Z,45.85
2022-08-02T09:03:08.286Z,46.48
2022-08-02T09:04:07.292Z,47.89
2022-08-02T09:05:07.260Z,48.11
2022-08-02T09:06:07.296Z,47.52
2022-08-02T09:07:07.253Z,46.63
2022-08-02T09:08:07.247Z,47.91
2022-08-02T09:09:07.229Z,48.11
2022-08-02T09:10:07.230Z,48.09
2022-08-02T09:11:07.211Z,47.89
2022-08-02T09:12:07.220Z,47.77
2022-08-02T09:13:32.375Z,47.28
2022-08-02T09:14:08.185Z,47.38
2022-08-02T09:15:07.178Z,47.28
2022-08-02T09:16:12.272Z,47.77
2022-08-02T09:17:08.684Z,47.45
2022-08-02T09:18:07.161Z,47.08
2022-08-02T09:19:07.964Z,46.59
2022-08-02T09:20:07.140Z,46.48
2022-08-02T09:21:07.130Z,47.69
2022-08-02T09:22:07.124Z,46.70
2022-08-02T09:23:07.118Z,47.03
2022-08-02T09:24:07.143Z,46.61
2022-08-02T09:25:07.140Z,46.41
2022-08-02T09:26:07.933Z,46.41
2022-08-02T09:27:07.108Z,46.23
2022-08-02T09:28:07.093Z,47.22
2022-08-02T09:29:07.073Z,47.15
2022-08-02T09:30:13.321Z,47.47
2022-08-02T09:31:08.057Z,47.66
2022-08-02T09:32:07.051Z,46.88
2022-08-02T09:33:07.042Z,47.86
2022-08-02T09:34:07.046Z,48.08
2022-08-02T09:35:07.692Z,47.78
2022-08-02T09:36:08.348Z,49.42
2022-08-02T09:37:08.659Z,48.43
2022-08-02T09:38:07.011Z,48.53
2022-08-02T09:39:07.029Z,48.21
2022-08-02T09:40:06.986Z,48.40
2022-08-02T09:41:06.984Z,48.43
2022-08-02T09:42:06.977Z,49.42
2022-08-02T09:43:06.968Z,48.82
2022-08-02T09:44:07.267Z,49.64
2022-08-02T09:45:06.947Z,48.75
2022-08-02T09:46:06.940Z,48.55
2022-08-02T09:47:06.948Z,48.15
2022-08-02T09:48:06.931Z,48.13
2022-08-02T09:49:06.994Z,48.33
2022-08-02T09:50:07.830Z,48.13
2022-08-02T09:51:08.713Z,46.35
2022-08-02T09:52:06.912Z,46.42
2022-08-02T09:53:06.906Z,47.12
2022-08-02T09:54:08.842Z,46.82
2022-08-02T09:55:07.872Z,45.93
2022-08-02T09:57:13.158Z,47.14
2022-08-02T09:58:13.154Z,47.63
2022-08-02T09:59:13.144Z,47.14
2022-08-02T10:00:20.420Z,47.66
2022-08-02T10:01:15.233Z,47.06
2022-08-02T10:02:14.640Z,47.26
2022-08-02T10:03:14.340Z,47.93
2022-08-02T10:04:21.242Z,46.94
2022-08-02T10:05:16.620Z,47.34
2022-08-02T10:06:14.191Z,46.35
2022-08-02T10:07:14.203Z,44.96
2022-08-02T10:08:14.176Z,44.37
2022-08-02T10:09:14.164Z,44.76
2022-08-02T10:10:14.226Z,46.05
2022-08-02T10:11:14.143Z,45.63
2022-08-02T10:12:14.529Z,45.73
2022-08-02T10:13:47.040Z,44.15
2022-08-02T10:14:14.114Z,44.05
2022-08-02T10:15:14.116Z,45.01
2022-08-02T10:16:14.105Z,42.74
2022-08-02T10:17:14.092Z,42.25
2022-08-02T10:18:36.950Z,41.46
2022-08-02T10:19:16.088Z,41.46
2022-08-02T10:20:14.121Z,42.05
2022-08-02T10:21:14.061Z,41.46
2022-08-02T10:22:14.619Z,42.66
2022-08-02T10:23:14.052Z,42.35
2022-08-02T10:24:14.544Z,42.25
2022-08-02T10:25:14.030Z,41.36
2022-08-02T10:26:14.032Z,40.86
2022-08-02T10:27:14.017Z,39.37
2022-08-02T10:28:16.588Z,38.88
2022-08-02T10:29:15.003Z,37.00
2022-08-02T10:30:13.990Z,39.18
2022-08-02T10:31:13.979Z,41.55
2022-08-02T10:32:14.426Z,39.97
2022-08-02T10:33:13.966Z,39.08
2022-08-02T10:34:13.960Z,38.78
2022-08-02T10:35:20.073Z,39.87
2022-08-02T10:36:14.936Z,39.06
2022-08-02T10:37:15.109Z,37.18
2022-08-02T10:38:13.939Z,36.59
2022-08-02T10:39:13.927Z,35.11
2022-08-02T10:40:14.015Z,32.14
2022-08-02T10:41:13.909Z,33.92
2022-08-02T10:42:14.353Z,33.52
2022-08-02T10:43:47.084Z,33.42
2022-08-02T10:44:24.885Z,33.52
2022-08-02T10:45:14.886Z,35.89
2022-08-02T10:46:13.866Z,35.30
2022-08-02T10:47:15.111Z,33.72
2022-08-02T10:48:13.856Z,33.42
2022-08-02T10:50:15.879Z,33.03
2022-08-02T10:51:13.845Z,32.43
2022-08-02T10:52:14.212Z,33.72
2022-08-02T10:53:13.837Z,34.50
2022-08-02T10:54:14.071Z,36.69
2022-08-02T10:55:14.904Z,36.88
2022-08-02T10:56:14.787Z,37.58
2022-08-02T10:57:15.336Z,37.70
2022-08-02T10:58:14.777Z,37.49
2022-08-02T10:59:13.753Z,38.01
2022-08-02T11:00:17.269Z,37.34
2022-08-02T11:01:14.810Z,37.63
2022-08-02T11:02:14.070Z,37.53
2022-08-02T11:03:13.737Z,38.13
2022-08-02T11:04:14.587Z,37.73
2022-08-02T11:05:13.721Z,38.64
2022-08-02T11:06:25.957Z,37.55
2022-08-02T11:07:14.691Z,38.17
2022-08-02T11:08:13.717Z,37.85
2022-08-02T11:09:13.680Z,37.96
2022-08-02T11:10:13.678Z,37.87
2022-08-02T11:11:13.671Z,36.98
2022-08-02T11:12:14.009Z,37.88
2022-08-02T11:13:13.648Z,37.98
2022-08-02T11:14:13.649Z,37.88
2022-08-02T11:15:13.634Z,38.96
2022-08-02T11:16:14.598Z,40.34
2022-08-02T11:17:13.650Z,38.84
2022-08-02T11:18:13.613Z,38.64
2022-08-02T11:19:13.614Z,39.23
2022-08-02T11:20:13.611Z,38.53
2022-08-02T11:21:14.107Z,38.92
2022-08-02T11:22:14.099Z,39.40
2022-08-02T11:23:13.562Z,38.40
2022-08-02T11:24:13.569Z,38.51
2022-08-02T11:25:14.099Z,39.00
2022-08-02T11:26:13.544Z,37.62
2022-08-02T11:27:13.576Z,38.62
2022-08-02T11:28:13.543Z,38.05
2022-08-02T11:29:15.906Z,39.22
2022-08-02T11:30:13.530Z,38.32
2022-08-02T11:31:13.530Z,38.72
2022-08-02T11:32:13.948Z,38.94
2022-08-02T11:33:13.516Z,38.84
2022-08-02T11:34:28.459Z,39.53
2022-08-02T11:35:14.472Z,40.12
2022-08-02T11:36:13.489Z,40.33
2022-08-02T11:37:13.484Z,40.42
2022-08-02T11:38:13.479Z,40.33
2022-08-02T11:39:13.683Z,39.23
2022-08-02T11:40:19.866Z,39.22
2022-08-02T11:41:14.439Z,38.92
2022-08-02T11:42:14.774Z,38.92
2022-08-02T11:43:13.401Z,39.42
2022-08-02T11:44:13.396Z,40.52
2022-08-02T11:45:20.971Z,38.64
2022-08-02T11:46:14.401Z,39.14
2022-08-02T11:47:13.375Z,39.63
2022-08-02T11:48:13.400Z,39.71
2022-08-02T11:49:13.457Z,39.51
2022-08-02T11:50:13.370Z,39.51
2022-08-02T11:51:13.349Z,40.11
2022-08-02T11:52:13.628Z,39.69
2022-08-02T11:53:13.347Z,40.58
2022-08-02T11:54:13.330Z,39.40
2022-08-02T11:55:13.312Z,39.67
2022-08-02T11:56:14.115Z,40.07
2022-08-02T11:57:18.976Z,39.77
2022-08-02T11:58:15.297Z,40.29
2022-08-02T11:59:14.627Z,40.19
2022-08-02T12:00:13.295Z,39.89
2022-08-02T12:01:13.275Z,40.29
2022-08-02T12:02:13.667Z,39.81
2022-08-02T12:03:16.551Z,40.68
2022-08-02T12:04:14.239Z,39.89
2022-08-02T12:05:13.233Z,39.67
2022-08-02T12:06:16.552Z,39.67
2022-08-02T12:07:13.233Z,39.97
2022-08-02T12:08:13.224Z,39.77
2022-08-02T12:09:17.955Z,38.49
2022-08-02T12:10:18.777Z,38.67
2022-08-02T12:11:14.194Z,37.68
2022-08-02T12:12:13.528Z,38.86
2022-08-02T12:13:13.184Z,38.94
2022-08-02T12:14:13.167Z,39.43
2022-08-02T12:15:13.182Z,39.32
2022-08-02T12:16:13.174Z,38.23
2022-08-02T12:17:13.140Z,37.84
2022-08-02T12:18:13.144Z,38.02
2022-08-02T12:19:14.350Z,37.92
2022-08-02T12:20:13.117Z,38.41
2022-08-02T12:21:13.133Z,39.50
2022-08-02T12:22:13.456Z,39.50
2022-08-02T12:23:13.131Z,39.00
2022-08-02T12:24:13.104Z,38.61
2022-08-02T12:25:13.115Z,39.60
2022-08-02T12:26:15.990Z,39.60
2022-08-02T12:27:13.073Z,39.50
2022-08-02T12:28:17.069Z,38.61
2022-08-02T12:29:14.086Z,38.41
2022-08-02T12:30:13.051Z,38.98
2022-08-02T12:31:13.049Z,39.00
2022-08-02T12:32:13.526Z,39.40
2022-08-02T12:33:13.431Z,38.81
2022-08-02T12:34:13.029Z,38.79
2022-08-02T12:35:13.007Z,38.49
2022-08-02T12:36:13.048Z,38.59
2022-08-02T12:37:12.990Z,38.69
2022-08-02T12:38:12.984Z,38.81
2022-08-02T12:39:12.982Z,37.51
2022-08-02T12:40:13.006Z,38.59
2022-08-02T12:41:31.147Z,37.51
2022-08-02T12:42:14.560Z,37.41
2022-08-02T12:43:12.953Z,37.41
2022-08-02T12:44:12.931Z,38.10
2022-08-02T12:45:12.932Z,38.59
2022-08-02T12:46:12.942Z,38.59
2022-08-02T12:47:12.910Z,37.70
2022-08-02T12:48:12.917Z,38.29
2022-08-02T12:49:18.261Z,37.90
2022-08-02T12:50:14.883Z,38.49
2022-08-02T12:51:12.874Z,37.01
2022-08-02T12:52:13.170Z,37.51
2022-08-02T12:53:12.898Z,36.82
2022-08-02T12:54:12.858Z,37.30
2022-08-02T12:55:13.864Z,36.90
2022-08-02T12:56:12.835Z,37.09
2022-08-02T12:57:12.909Z,37.19